Strona główna
METAR-TAF:

METAR-TAF

Lotnisko :

Central Park

Nowy Jork, Nowy Jork, Stany Zjednoczone

Szerokość geograficzna: 40-47-00N, Długość geograficzna: 073-58-00W, wysokość: 47 m

Aktualna obserwacja pogody

Raport powstał 1 godzina i 8 minut temu, godzina 07:51 UTC
Wiatr 4 kt z kierunków zmiennych
Temperatura 2°C
Wilgotność 93%
Ciśnienie 1006 hPa
Widzialność: 11.3 km
Zachmurzenie całkowite na wysokości 600 ft

METAR: KNYC 190751Z AUTO VRB04KT 7SM OVC006 02/01 A2971 RMK AO2 RAE0656 SLP054 P0000 T00220011

czas: 03:59 (08:59 UTC)


TAF: brakujący

Obserwacja i prognoza pogody dla ponad 4000 lotnisk (raport METAR i TAF).

Dostępne stacje oznaczono żółtymi i czerwonymi punktami na mapie.

Najedź kursorem aby zobaczyć nazwę stacji.

Kliknij aby zobaczyć obserwacje i prognozy pogody.

Aby zmienić mapę: kliknij na zielony przycisk z czarnym krzyżykiem, aby powiększyć; na zielony przycisk z myślnikiem, aby pomniejszyć; na zielone strzałki, aby przejść do map sąsiednich.


METAR-TAF: